Aviation Digital Data Service (ADDS)

Output produced by METARs form (0225 UTC 21 November 2017)
found at http://www.aviationweather.gov/adds/metars/
 
HSOB 210200Z 36010KT CAVOK 21/02 Q1013
TAF HSOB 201100Z 2012/2118 36010G20KT CAVOK
       
TAF HSKA 201100Z 2012/2118 VRB03KT CAVOK
       
HSSS 210200Z 36016KT CAVOK 23/M01 Q1012 NOSIG
TAF HSSS 202300Z 2100/2206 34016G26KT 8000 SKC 
     TEMPO 2102/2107 4000 BLSA 
     TEMPO 2113/2118 6000 SKC
       
HSPN 210200Z 26006KT CAVOK 26/24 Q1010
TAF HSPN 202300Z 2100/2206 32008KT 8000 FEW030 SCT130 
     TEMPO 2103/2108 6000 SHRA BKN130 
     BECMG 2110/2112 04015G25KT